createdAt,value
2023-01-04T00:01:25.552Z,79143.13
2023-01-04T00:03:52.289Z,79147.09
2023-01-04T00:06:19.438Z,79143.13
2023-01-04T00:08:45.861Z,79113.31
2023-01-04T00:11:15.141Z,79107.34
2023-01-04T00:13:41.656Z,79111.31
2023-01-04T00:16:12.262Z,79121.25
2023-01-04T00:18:38.895Z,79123.25
2023-01-04T00:21:23.592Z,79127.22
2023-01-04T00:23:53.134Z,79103.34
2023-01-04T00:26:22.545Z,79117.28
2023-01-04T00:28:54.256Z,79099.38
2023-01-04T00:31:21.777Z,79113.31
2023-01-04T00:33:48.517Z,79119.25
2023-01-04T00:36:15.169Z,79129.22
2023-01-04T00:38:42.356Z,79125.22
2023-01-04T00:41:23.126Z,79121.25
2023-01-04T00:43:57.068Z,79115.28
2023-01-04T00:46:23.563Z,79103.34
2023-01-04T00:48:50.913Z,79093.41
2023-01-04T00:51:19.194Z,79075.50
2023-01-04T00:53:45.551Z,79067.56
2023-01-04T00:56:11.905Z,79063.59
2023-01-04T00:58:38.296Z,79049.66
2023-01-04T01:01:08.853Z,79047.69
2023-01-04T01:03:38.610Z,79041.72
2023-01-04T01:06:07.858Z,79033.75
2023-01-04T01:08:35.141Z,79015.84
2023-01-04T01:11:08.444Z,79011.88
2023-01-04T01:13:36.127Z,79003.94
2023-01-04T01:16:07.677Z,78999.94
2023-01-04T01:18:35.697Z,78997.97
2023-01-04T01:21:09.990Z,78988.00
2023-01-04T01:23:36.633Z,78980.06
2023-01-04T01:26:06.127Z,78982.06
2023-01-04T01:28:34.441Z,78992.00
2023-01-04T01:31:08.830Z,79005.91
2023-01-04T01:33:43.434Z,78988.00
2023-01-04T01:36:12.435Z,78980.06
2023-01-04T01:38:39.195Z,78982.06
2023-01-04T01:41:07.130Z,78984.03
2023-01-04T01:43:53.297Z,78980.06
2023-01-04T01:46:25.145Z,78974.09
2023-01-04T01:48:56.704Z,78976.09
2023-01-04T01:51:23.466Z,78974.09
2023-01-04T01:53:53.711Z,78970.13
2023-01-04T01:56:20.484Z,78986.03
2023-01-04T01:58:52.468Z,78988.00
2023-01-04T02:01:19.481Z,78986.03
2023-01-04T02:03:46.697Z,78974.09
2023-01-04T02:06:20.956Z,78980.06
2023-01-04T02:08:48.751Z,78976.09
2023-01-04T02:11:15.223Z,78974.09
2023-01-04T02:14:02.673Z,78968.13
2023-01-04T02:16:53.985Z,78976.09
2023-01-04T02:19:57.721Z,78956.19
2023-01-04T02:22:51.847Z,78958.19
2023-01-04T02:25:30.095Z,78948.25
2023-01-04T02:28:09.632Z,78952.22
2023-01-04T02:30:45.160Z,78942.28
2023-01-04T02:33:30.797Z,78936.31
2023-01-04T02:36:35.230Z,78922.41
2023-01-04T02:39:24.421Z,78912.44
2023-01-04T02:42:15.663Z,78908.47
2023-01-04T02:44:54.297Z,78912.44
2023-01-04T02:47:51.567Z,78900.53
2023-01-04T02:50:32.882Z,78890.56
2023-01-04T02:53:02.837Z,78884.59
2023-01-04T02:55:56.090Z,78882.63
2023-01-04T02:59:00.252Z,78864.72
2023-01-04T03:02:10.375Z,78856.78
2023-01-04T03:05:06.059Z,78848.81
2023-01-04T03:07:50.649Z,78850.81
2023-01-04T03:10:27.962Z,78858.75
2023-01-04T03:13:01.225Z,78846.84
2023-01-04T03:15:31.365Z,78846.84
2023-01-04T03:18:05.477Z,78852.78
2023-01-04T03:20:32.112Z,78848.81
2023-01-04T03:23:25.320Z,78840.88
2023-01-04T03:26:17.749Z,78836.88
2023-01-04T03:29:04.129Z,78826.94
2023-01-04T03:31:54.606Z,78826.94
2023-01-04T03:34:39.951Z,78826.94
2023-01-04T03:37:30.564Z,78817.00
2023-01-04T03:40:48.217Z,78813.03
2023-01-04T03:43:38.097Z,78822.97
2023-01-04T03:46:34.696Z,78822.97
2023-01-04T03:49:13.525Z,78826.94
2023-01-04T03:51:40.838Z,78807.06
2023-01-04T03:54:14.303Z,78811.03
2023-01-04T03:56:44.704Z,78807.06
2023-01-04T03:59:12.929Z,78799.09
2023-01-04T04:01:42.522Z,78801.09
2023-01-04T04:04:28.465Z,78787.19
2023-01-04T04:07:13.532Z,78783.19
2023-01-04T04:09:39.935Z,78793.13
2023-01-04T04:12:06.440Z,78797.13
2023-01-04T04:14:32.854Z,78775.25
2023-01-04T04:16:59.522Z,78767.28
2023-01-04T04:19:26.030Z,78759.34
2023-01-04T04:21:52.410Z,78753.38
2023-01-04T04:24:21.957Z,78737.47
2023-01-04T04:26:48.854Z,78735.47
2023-01-04T04:29:15.227Z,78729.50
2023-01-04T04:31:41.681Z,78709.63
2023-01-04T04:34:10.200Z,78713.59
2023-01-04T04:36:36.586Z,78701.66
2023-01-04T04:39:03.578Z,78697.69
2023-01-04T04:41:38.825Z,78689.75
2023-01-04T04:44:11.239Z,78679.81
2023-01-04T04:46:38.422Z,78661.91
2023-01-04T04:49:05.707Z,78673.84
2023-01-04T04:51:32.151Z,78663.91
2023-01-04T04:53:58.577Z,78661.91
2023-01-04T04:56:24.960Z,78653.94
2023-01-04T04:58:52.610Z,78647.97
2023-01-04T05:01:19.596Z,78642.03
2023-01-04T05:03:46.235Z,78636.06
2023-01-04T05:06:13.219Z,78614.19
2023-01-04T05:08:40.053Z,78612.19
2023-01-04T05:11:08.340Z,78598.28
2023-01-04T05:13:35.366Z,78582.38
2023-01-04T05:16:03.128Z,78576.41
2023-01-04T05:18:29.615Z,78566.47
2023-01-04T05:20:56.116Z,78570.44
2023-01-04T05:23:23.046Z,78562.50
2023-01-04T05:25:56.630Z,78546.59
2023-01-04T05:28:22.990Z,78544.59
2023-01-04T05:30:51.091Z,78522.72
2023-01-04T05:33:37.727Z,78496.88
2023-01-04T05:36:04.407Z,78508.81
2023-01-04T05:38:30.882Z,78508.81
2023-01-04T05:40:57.601Z,78502.84
2023-01-04T05:43:24.801Z,78502.84
2023-01-04T05:45:54.158Z,78496.88
2023-01-04T05:48:22.849Z,78475.00
2023-01-04T05:50:49.351Z,78469.03
2023-01-04T05:53:18.899Z,78455.13
2023-01-04T05:55:48.113Z,78459.09
2023-01-04T05:58:15.123Z,78455.13
2023-01-04T06:00:41.667Z,78455.13
2023-01-04T06:03:08.233Z,78443.19
2023-01-04T06:05:34.767Z,78425.28
2023-01-04T06:08:01.195Z,78411.38
2023-01-04T06:10:27.626Z,78417.34
2023-01-04T06:12:54.010Z,78413.38
2023-01-04T06:15:20.556Z,78407.41
2023-01-04T06:17:46.947Z,78403.44
2023-01-04T06:20:13.372Z,78403.44
2023-01-04T06:22:43.125Z,78405.41
2023-01-04T06:25:09.784Z,78385.53
2023-01-04T06:27:36.552Z,78379.56
2023-01-04T06:30:04.503Z,78365.66
2023-01-04T06:32:30.925Z,78349.75
2023-01-04T06:34:57.336Z,78345.75
2023-01-04T06:37:23.787Z,78345.75
2023-01-04T06:39:50.215Z,78327.88
2023-01-04T06:42:35.426Z,78329.84
2023-01-04T06:45:02.060Z,78315.94
2023-01-04T06:47:28.575Z,78317.94
2023-01-04T06:49:55.039Z,78300.03
2023-01-04T06:52:21.663Z,78284.13
2023-01-04T06:54:48.109Z,78276.19
2023-01-04T06:57:14.534Z,78260.28
2023-01-04T06:59:41.004Z,78250.34
2023-01-04T07:02:07.672Z,78238.41
2023-01-04T07:04:34.434Z,78218.53
2023-01-04T07:07:02.197Z,78206.59
2023-01-04T07:09:28.627Z,78204.59
2023-01-04T07:11:55.055Z,78198.66
2023-01-04T07:14:21.518Z,78176.78
2023-01-04T07:16:48.067Z,78180.75
2023-01-04T07:19:14.672Z,78162.84
2023-01-04T07:21:41.352Z,78135.03
2023-01-04T07:24:07.817Z,78121.09
2023-01-04T07:26:35.042Z,78109.19
2023-01-04T07:29:19.665Z,78091.28
2023-01-04T07:31:48.223Z,78071.41
2023-01-04T07:34:16.277Z,78063.44
2023-01-04T07:36:42.698Z,78037.59
2023-01-04T07:39:12.758Z,78025.69
2023-01-04T07:41:40.615Z,78005.81
2023-01-04T07:44:08.297Z,77983.94
2023-01-04T07:46:35.152Z,77966.03
2023-01-04T07:49:02.212Z,77958.09
2023-01-04T07:51:30.556Z,77960.06
2023-01-04T07:53:57.026Z,77944.16
2023-01-04T07:56:23.532Z,77944.16
2023-01-04T07:58:50.033Z,77934.22
2023-01-04T08:01:18.660Z,77926.28
2023-01-04T08:03:46.359Z,77918.31
2023-01-04T08:06:14.595Z,77914.34
2023-01-04T08:08:41.809Z,77930.25
2023-01-04T08:11:11.713Z,77918.31
2023-01-04T08:13:38.303Z,77918.31
2023-01-04T08:16:05.092Z,77910.38
2023-01-04T08:18:31.742Z,77906.41
2023-01-04T08:21:06.684Z,77912.38
2023-01-04T08:23:34.831Z,77902.44
2023-01-04T08:26:10.156Z,77900.44
2023-01-04T08:28:37.028Z,77882.53
2023-01-04T08:31:15.863Z,77862.66
2023-01-04T08:33:43.271Z,77836.81
2023-01-04T08:36:28.172Z,77840.78
2023-01-04T08:39:00.624Z,77848.75
2023-01-04T08:44:20.720Z,77838.81
2023-01-04T08:46:48.215Z,77842.78
2023-01-04T08:49:14.707Z,77838.81
2023-01-04T08:51:42.148Z,77836.81
2023-01-04T08:54:09.633Z,77832.84
2023-01-04T08:56:36.622Z,77826.88
2023-01-04T08:59:04.072Z,77818.94
2023-01-04T09:01:32.801Z,77820.91
2023-01-04T09:03:59.376Z,77818.94
2023-01-04T09:06:26.112Z,77822.91
2023-01-04T09:08:52.776Z,77836.81
2023-01-04T09:11:21.239Z,77822.91
2023-01-04T09:13:48.802Z,77809.00
2023-01-04T09:16:19.766Z,77816.94
2023-01-04T09:18:46.975Z,77830.84
2023-01-04T09:21:16.224Z,77822.91
2023-01-04T09:23:43.957Z,77818.94
2023-01-04T09:26:13.965Z,77836.81
2023-01-04T09:28:40.665Z,77816.94
2023-01-04T09:31:12.297Z,77820.91
2023-01-04T09:34:12.040Z,77814.97
2023-01-04T09:36:28.090Z,77803.03
2023-01-04T09:38:55.613Z,77787.13
2023-01-04T09:41:29.266Z,77791.09
2023-01-04T09:44:03.025Z,77777.19
2023-01-04T09:46:52.951Z,77783.16
2023-01-04T09:49:43.123Z,77775.19
2023-01-04T09:52:09.440Z,77767.25
2023-01-04T09:55:04.837Z,77775.19
2023-01-04T09:58:00.136Z,77755.31
2023-01-04T10:00:33.837Z,77745.38
2023-01-04T10:03:17.278Z,77735.44
2023-01-04T10:05:43.892Z,77731.47
2023-01-04T10:08:18.301Z,77735.44
2023-01-04T10:10:57.616Z,77719.53
2023-01-04T10:13:58.221Z,77725.50
2023-01-04T10:17:14.309Z,77719.53
2023-01-04T10:22:58.945Z,77687.72
2023-01-04T10:25:39.530Z,77671.81
2023-01-04T10:28:23.225Z,77671.81
2023-01-04T10:31:40.884Z,77663.88
2023-01-04T10:33:55.919Z,77659.91
2023-01-04T10:36:27.385Z,77657.91
2023-01-04T10:39:00.479Z,77644.00
2023-01-04T10:41:31.867Z,77642.00
2023-01-04T10:44:17.492Z,77634.06
2023-01-04T10:47:05.272Z,77620.16
2023-01-04T10:49:49.411Z,77634.06
2023-01-04T10:52:18.299Z,77638.03
2023-01-04T10:54:58.697Z,77644.00
2023-01-04T10:57:28.583Z,77624.13
2023-01-04T11:00:04.632Z,77640.03
2023-01-04T11:02:46.076Z,77626.13
2023-01-04T11:05:26.466Z,77622.13
2023-01-04T11:07:59.700Z,77614.19
2023-01-04T11:10:30.128Z,77602.25
2023-01-04T11:12:56.522Z,77590.34
2023-01-04T11:15:23.178Z,77588.34
2023-01-04T11:17:51.075Z,77592.31
2023-01-04T11:20:17.548Z,77588.34
2023-01-04T11:23:04.733Z,77572.44
2023-01-04T11:25:39.730Z,77566.47
2023-01-04T11:28:16.115Z,77566.47
2023-01-04T11:30:54.173Z,77558.53
2023-01-04T11:33:22.996Z,77544.63
2023-01-04T11:35:52.202Z,77534.69
2023-01-04T11:38:21.428Z,77534.69
2023-01-04T11:40:59.586Z,77518.78
2023-01-04T11:43:31.485Z,77518.78
2023-01-04T11:46:05.737Z,77504.84
2023-01-04T11:48:44.085Z,77490.94
2023-01-04T11:51:19.702Z,77490.94
2023-01-04T11:53:56.098Z,77477.03
2023-01-04T11:56:24.047Z,77465.09
2023-01-04T11:59:13.941Z,77471.06
2023-01-04T12:01:44.697Z,77465.09
2023-01-04T12:04:22.494Z,77457.16
2023-01-04T12:07:05.707Z,77465.09
2023-01-04T12:09:32.494Z,77459.13
2023-01-04T12:12:00.623Z,77447.22
2023-01-04T12:14:35.921Z,77465.09
2023-01-04T12:17:12.136Z,77447.22
2023-01-04T12:19:42.074Z,77457.16
2023-01-04T12:22:33.887Z,77441.25
2023-01-04T12:25:02.088Z,77449.19
2023-01-04T12:27:28.821Z,77425.34
2023-01-04T12:29:55.258Z,77417.41
2023-01-04T12:32:27.767Z,77425.34
2023-01-04T12:34:54.840Z,77421.38
2023-01-04T12:37:48.294Z,77411.44
2023-01-04T12:40:46.547Z,77407.47
2023-01-04T12:43:15.956Z,77401.50
2023-01-04T12:45:48.310Z,77391.56
2023-01-04T12:48:48.731Z,77395.53
2023-01-04T12:51:31.045Z,77391.56
2023-01-04T12:54:06.088Z,77391.56
2023-01-04T12:57:10.471Z,77383.59
2023-01-04T12:59:53.603Z,77393.56
2023-01-04T13:02:36.379Z,77391.56
2023-01-04T13:05:54.741Z,77373.66
2023-01-04T13:08:11.967Z,77381.63
2023-01-04T13:10:42.811Z,77377.66
2023-01-04T13:13:15.146Z,77371.69
2023-01-04T13:16:11.525Z,77381.63
2023-01-04T13:18:47.304Z,77381.63
2023-01-04T13:21:18.404Z,77369.69
2023-01-04T13:23:54.089Z,77393.56
2023-01-04T13:26:36.990Z,77387.59
2023-01-04T13:29:19.899Z,77383.59
2023-01-04T13:31:56.152Z,77375.66
2023-01-04T13:34:42.792Z,77371.69
2023-01-04T13:37:12.206Z,77361.75
2023-01-04T13:39:44.899Z,77367.72
2023-01-04T13:42:24.111Z,77365.72
2023-01-04T13:45:19.276Z,77361.75
2023-01-04T13:47:48.940Z,77353.78
2023-01-04T13:50:27.757Z,77353.78
2023-01-04T13:53:06.230Z,77335.91
2023-01-04T13:55:36.692Z,77339.88
2023-01-04T13:58:17.106Z,77331.94
2023-01-04T14:00:46.377Z,77331.94
2023-01-04T14:03:25.087Z,77322.00
2023-01-04T14:05:54.217Z,77316.03
2023-01-04T14:08:36.699Z,77329.94
2023-01-04T14:11:14.361Z,77325.97
2023-01-04T14:13:47.046Z,77302.13
2023-01-04T14:16:15.114Z,77327.97
2023-01-04T14:18:41.548Z,77316.03
2023-01-04T14:21:18.309Z,77306.09
2023-01-04T14:23:44.931Z,77306.09
2023-01-04T14:26:31.429Z,77286.22
2023-01-04T14:28:57.842Z,77296.16
2023-01-04T14:31:30.977Z,77290.19
2023-01-04T14:33:57.732Z,77310.06
2023-01-04T14:36:29.145Z,77312.06
2023-01-04T14:39:05.470Z,77300.13
2023-01-04T14:41:37.747Z,77288.22
2023-01-04T14:44:13.433Z,77278.25
2023-01-04T14:46:43.393Z,77282.25
2023-01-04T14:49:10.210Z,77276.28
2023-01-04T14:51:42.237Z,77270.31
2023-01-04T14:54:11.787Z,77250.44
2023-01-04T14:56:38.738Z,77250.44
2023-01-04T14:59:05.234Z,77238.50
2023-01-04T15:01:31.909Z,77238.50
2023-01-04T15:03:58.676Z,77238.50
2023-01-04T15:06:26.402Z,77228.56
2023-01-04T15:08:52.840Z,77232.56
2023-01-04T15:11:19.694Z,77244.47
2023-01-04T15:13:46.101Z,77222.63
2023-01-04T15:16:15.896Z,77214.66
2023-01-04T15:18:43.443Z,77212.69
2023-01-04T15:21:11.281Z,77200.75
2023-01-04T15:23:38.237Z,77206.72
2023-01-04T15:26:06.573Z,77198.75
2023-01-04T15:28:33.103Z,77182.88
2023-01-04T15:30:59.703Z,77180.88
2023-01-04T15:33:32.137Z,77190.81
2023-01-04T15:36:00.796Z,77174.91
2023-01-04T15:38:27.409Z,77166.97
2023-01-04T15:41:00.381Z,77166.97
2023-01-04T15:43:32.611Z,77182.88
2023-01-04T15:46:07.456Z,77176.91
2023-01-04T15:48:35.600Z,77178.88
2023-01-04T15:51:04.958Z,77168.94
2023-01-04T15:53:31.350Z,77168.94
2023-01-04T15:56:05.581Z,77164.97
2023-01-04T15:58:32.022Z,77155.03
2023-01-04T16:01:04.363Z,77153.06
2023-01-04T16:03:34.716Z,77159.00
2023-01-04T16:06:08.142Z,77147.09
2023-01-04T16:08:34.644Z,77137.16
2023-01-04T16:11:18.763Z,77137.16
2023-01-04T16:13:47.839Z,77137.16
2023-01-04T16:16:15.278Z,77119.25
2023-01-04T16:18:47.006Z,77119.25
2023-01-04T16:21:14.537Z,77123.25
2023-01-04T16:23:40.961Z,77119.25
2023-01-04T16:26:10.660Z,77103.38
2023-01-04T16:28:37.698Z,77105.34
2023-01-04T16:31:05.079Z,77101.38
2023-01-04T16:33:31.551Z,77093.44
2023-01-04T16:36:08.736Z,77097.41
2023-01-04T16:38:36.963Z,77075.53
2023-01-04T16:41:04.832Z,77079.50
2023-01-04T16:43:31.674Z,77081.50
2023-01-04T16:46:13.453Z,77087.47
2023-01-04T16:49:08.009Z,77083.50
2023-01-04T16:51:36.574Z,77081.50
2023-01-04T16:54:05.852Z,77073.56
2023-01-04T16:56:33.175Z,77065.59
2023-01-04T16:59:00.919Z,77063.63
2023-01-04T17:01:29.760Z,77067.59
2023-01-04T17:03:58.837Z,77069.56
2023-01-04T17:06:28.720Z,77057.66
2023-01-04T17:08:56.603Z,77059.63
2023-01-04T17:12:11.340Z,77049.69
2023-01-04T17:14:14.149Z,77055.66
2023-01-04T17:16:40.954Z,77051.69
2023-01-04T17:19:07.489Z,77055.66
2023-01-04T17:21:35.313Z,77033.81
2023-01-04T17:24:02.911Z,77041.75
2023-01-04T17:26:31.213Z,77029.81
2023-01-04T17:28:59.094Z,77019.88
2023-01-04T17:31:28.862Z,77019.88
2023-01-04T17:33:55.314Z,77023.88
2023-01-04T17:36:22.104Z,77007.97
2023-01-04T17:38:50.128Z,77005.97
2023-01-04T17:41:23.164Z,76984.13
2023-01-04T17:43:52.078Z,76994.06
2023-01-04T17:46:23.455Z,76974.19
2023-01-04T17:49:21.215Z,76968.22
2023-01-04T17:51:40.528Z,76968.22
2023-01-04T17:54:08.391Z,76946.34
2023-01-04T17:56:36.918Z,76922.50
2023-01-04T17:59:06.854Z,76936.41
2023-01-04T18:01:35.073Z,76932.44
2023-01-04T18:04:03.072Z,76924.50
2023-01-04T18:06:33.066Z,76916.53
2023-01-04T18:09:02.348Z,76910.59
2023-01-04T18:11:29.417Z,76912.56
2023-01-04T18:13:56.487Z,76904.63
2023-01-04T18:16:28.415Z,76894.69
2023-01-04T18:18:57.138Z,76898.66
2023-01-04T18:21:29.123Z,76904.63
2023-01-04T18:29:36.343Z,76874.81
2023-01-04T18:32:02.888Z,76870.84
2023-01-04T18:34:29.379Z,76868.84
2023-01-04T18:36:55.852Z,76878.78
2023-01-04T18:39:22.331Z,76864.88
2023-01-04T18:41:49.495Z,76854.94
2023-01-04T18:44:32.725Z,76837.06
2023-01-04T18:47:00.179Z,76845.00
2023-01-04T18:49:26.598Z,76841.03
2023-01-04T18:51:53.061Z,76831.09
2023-01-04T18:54:21.439Z,76833.06
2023-01-04T18:56:48.109Z,76817.19
2023-01-04T18:59:17.356Z,76837.06
2023-01-04T19:01:45.341Z,76841.03
2023-01-04T19:04:12.745Z,76843.00
2023-01-04T19:06:40.868Z,76833.06
2023-01-04T19:09:07.833Z,76829.09
2023-01-04T19:11:35.094Z,76825.13
2023-01-04T19:14:02.607Z,76821.16
2023-01-04T19:16:32.151Z,76821.16
2023-01-04T19:19:00.084Z,76821.16
2023-01-04T19:21:27.024Z,76825.13
2023-01-04T19:23:53.846Z,76827.13
2023-01-04T19:26:21.492Z,76829.09
2023-01-04T19:28:48.958Z,76819.16
2023-01-04T19:31:17.130Z,76813.19
2023-01-04T19:33:43.957Z,76815.19
2023-01-04T19:36:14.115Z,76811.22
2023-01-04T19:38:40.867Z,76815.19
2023-01-04T19:41:08.893Z,76811.22
2023-01-04T19:43:35.507Z,76801.28
2023-01-04T19:46:02.052Z,76809.22
2023-01-04T19:48:28.610Z,76789.34
2023-01-04T19:51:15.008Z,76791.34
2023-01-04T19:53:43.956Z,76799.28
2023-01-04T19:56:11.813Z,76781.41
2023-01-04T19:58:38.748Z,76781.41
2023-01-04T20:01:06.160Z,76767.50
2023-01-04T20:03:33.277Z,76781.41
2023-01-04T20:06:04.381Z,76779.41
2023-01-04T20:08:31.144Z,76777.44
2023-01-04T20:10:59.190Z,76769.47
2023-01-04T20:13:26.583Z,76761.53
2023-01-04T20:15:53.074Z,76757.56
2023-01-04T20:18:20.836Z,76755.56
2023-01-04T20:20:47.485Z,76759.53
2023-01-04T20:23:15.224Z,76763.53
2023-01-04T20:25:43.972Z,76761.53
2023-01-04T20:28:11.362Z,76755.56
2023-01-04T20:30:38.275Z,76739.66
2023-01-04T20:33:05.035Z,76739.66
2023-01-04T20:35:31.456Z,76739.66
2023-01-04T20:37:57.972Z,76733.72
2023-01-04T20:40:25.573Z,76729.75
2023-01-04T20:43:10.712Z,76723.78
2023-01-04T20:45:45.213Z,76715.81
2023-01-04T20:48:12.354Z,76735.69
2023-01-04T20:50:39.321Z,76737.69
2023-01-04T20:53:05.955Z,76725.75
2023-01-04T20:55:32.980Z,76727.75
2023-01-04T20:57:59.551Z,76721.78
2023-01-04T21:00:25.948Z,76713.84
2023-01-04T21:02:52.504Z,76731.72
2023-01-04T21:05:19.088Z,76743.66
2023-01-04T21:07:45.507Z,76743.66
2023-01-04T21:10:11.922Z,76739.66
2023-01-04T21:12:38.740Z,76735.69
2023-01-04T21:15:06.623Z,76729.75
2023-01-04T21:17:32.979Z,76723.78
2023-01-04T21:19:59.422Z,76733.72
2023-01-04T21:22:26.473Z,76723.78
2023-01-04T21:24:52.854Z,76721.78
2023-01-04T21:27:19.239Z,76719.81
2023-01-04T21:29:45.631Z,76719.81
2023-01-04T21:32:12.027Z,76717.81
2023-01-04T21:34:38.467Z,76715.81
2023-01-04T21:37:04.843Z,76695.94
2023-01-04T21:39:31.283Z,76697.94
2023-01-04T21:41:57.744Z,76682.03
2023-01-04T21:44:24.313Z,76678.06
2023-01-04T21:46:50.819Z,76664.16
2023-01-04T21:49:17.351Z,76674.09
2023-01-04T21:51:43.842Z,76656.22
2023-01-04T21:54:10.312Z,76664.16
2023-01-04T21:56:36.743Z,76652.22
2023-01-04T21:59:03.143Z,76666.16
2023-01-04T22:01:34.374Z,76658.19
2023-01-04T22:04:02.020Z,76648.25
2023-01-04T22:06:29.224Z,76646.28
2023-01-04T22:08:55.855Z,76644.28
2023-01-04T22:11:22.238Z,76642.28
2023-01-04T22:13:50.191Z,76650.25
2023-01-04T22:16:17.418Z,76638.31
2023-01-04T22:18:50.856Z,76650.25
2023-01-04T22:21:19.797Z,76644.28
2023-01-04T22:23:46.420Z,76630.38
2023-01-04T22:26:12.956Z,76632.34
2023-01-04T22:28:40.442Z,76638.31
2023-01-04T22:31:08.997Z,76644.28
2023-01-04T22:33:36.436Z,76640.31
2023-01-04T22:36:05.260Z,76660.19
2023-01-04T22:38:34.392Z,76674.09
2023-01-04T22:41:04.702Z,76672.09
2023-01-04T22:43:31.289Z,76674.09
2023-01-04T22:46:02.145Z,76674.09
2023-01-04T22:48:28.638Z,76688.00
2023-01-04T22:50:55.094Z,76682.03
2023-01-04T22:53:21.666Z,76691.97
2023-01-04T22:56:17.595Z,76686.00
2023-01-04T22:58:35.949Z,76703.91
2023-01-04T23:01:04.391Z,76711.84
2023-01-04T23:03:34.965Z,76701.91
2023-01-04T23:06:05.573Z,76715.81
2023-01-04T23:08:32.857Z,76717.81
2023-01-04T23:11:14.931Z,76719.81
2023-01-04T23:13:41.886Z,76709.88
2023-01-04T23:16:11.314Z,76725.75
2023-01-04T23:18:38.284Z,76743.66
2023-01-04T23:21:06.812Z,76727.75
2023-01-04T23:23:33.860Z,76727.75
2023-01-04T23:26:19.329Z,76747.63
2023-01-04T23:28:46.214Z,76741.66
2023-01-04T23:31:15.296Z,76755.56
2023-01-04T23:33:41.754Z,76755.56
2023-01-04T23:36:35.500Z,76755.56
2023-01-04T23:39:05.503Z,76759.53
2023-01-04T23:41:44.863Z,76753.59
2023-01-04T23:44:24.238Z,76759.53
2023-01-04T23:46:56.592Z,76753.59
2023-01-04T23:49:24.651Z,76745.63
2023-01-04T23:51:51.507Z,76759.53
2023-01-04T23:54:18.760Z,76769.47
2023-01-04T23:56:45.610Z,76773.47
2023-01-04T23:59:12.680Z,76787.38
